createdAt,value
2023-04-19T00:00:44.028Z,5.67
2023-04-19T00:03:11.550Z,5.63
2023-04-19T00:05:41.570Z,5.93
2023-04-19T00:08:08.243Z,6.00
2023-04-19T00:10:35.927Z,6.20
2023-04-19T00:13:03.188Z,6.67
2023-04-19T00:15:29.632Z,5.80
2023-04-19T00:17:56.626Z,5.33
2023-04-19T00:20:23.250Z,5.93
2023-04-19T00:22:49.808Z,5.93
2023-04-19T00:25:16.234Z,5.90
2023-04-19T00:27:42.793Z,5.77
2023-04-19T00:30:09.570Z,5.07
2023-04-19T00:32:36.315Z,5.67
2023-04-19T00:35:02.767Z,6.20
2023-04-19T00:37:31.778Z,5.37
2023-04-19T00:39:58.320Z,5.93
2023-04-19T00:42:26.267Z,5.20
2023-04-19T00:44:52.716Z,6.87
2023-04-19T00:47:19.384Z,5.90
2023-04-19T00:49:46.482Z,6.47
2023-04-19T00:52:13.280Z,6.23
2023-04-19T00:54:41.084Z,6.80
2023-04-19T00:57:07.529Z,7.03
2023-04-19T00:59:35.146Z,5.43
2023-04-19T01:02:03.849Z,5.87
2023-04-19T01:04:30.593Z,5.83
2023-04-19T01:06:57.395Z,5.23
2023-04-19T01:09:23.854Z,5.87
2023-04-19T01:11:50.974Z,5.43
2023-04-19T01:14:17.501Z,6.93
2023-04-19T01:16:46.629Z,5.50
2023-04-19T01:19:13.039Z,6.33
2023-04-19T01:21:40.393Z,5.90
2023-04-19T01:24:07.124Z,5.57
2023-04-19T01:26:33.747Z,5.93
2023-04-19T01:29:02.224Z,5.77
2023-04-19T01:31:28.881Z,6.13
2023-04-19T01:33:55.589Z,5.50
2023-04-19T01:36:22.293Z,5.23
2023-04-19T01:38:49.911Z,5.57
2023-04-19T01:41:16.613Z,5.03
2023-04-19T01:43:43.200Z,6.13
2023-04-19T01:46:09.778Z,6.00
2023-04-19T01:48:37.850Z,6.07
2023-04-19T01:51:04.573Z,5.23
2023-04-19T01:53:33.388Z,6.00
2023-04-19T01:56:00.439Z,4.90
2023-04-19T01:58:26.837Z,5.53
2023-04-19T02:00:54.091Z,5.50
2023-04-19T02:03:20.652Z,5.30
2023-04-19T02:05:49.307Z,5.33
2023-04-19T02:08:15.963Z,6.07
2023-04-19T02:10:42.452Z,5.70
2023-04-19T02:13:09.114Z,5.17
2023-04-19T02:15:37.260Z,5.50
2023-04-19T02:18:06.733Z,5.20
2023-04-19T02:20:33.450Z,4.50
2023-04-19T02:22:59.928Z,4.97
2023-04-19T02:25:27.451Z,5.03
2023-04-19T02:27:54.053Z,4.87
2023-04-19T02:30:20.954Z,4.60
2023-04-19T02:32:51.184Z,4.93
2023-04-19T02:35:17.676Z,5.10
2023-04-19T02:37:44.587Z,4.63
2023-04-19T02:40:11.224Z,5.63
2023-04-19T02:42:37.732Z,4.90
2023-04-19T02:45:05.684Z,5.17
2023-04-19T02:47:32.327Z,4.77
2023-04-19T02:50:00.392Z,4.30
2023-04-19T02:52:27.918Z,4.37
2023-04-19T02:54:54.518Z,4.90
2023-04-19T02:57:21.226Z,4.50
2023-04-19T02:59:48.306Z,4.70
2023-04-19T03:02:15.496Z,4.70
2023-04-19T03:04:43.380Z,4.07
2023-04-19T03:07:10.140Z,4.80
2023-04-19T03:09:37.063Z,4.77
2023-04-19T03:12:04.708Z,4.70
2023-04-19T03:14:31.238Z,4.57
2023-04-19T03:16:57.727Z,4.77
2023-04-19T03:19:24.263Z,4.37
2023-04-19T03:21:51.904Z,4.60
2023-04-19T03:24:20.346Z,4.30
2023-04-19T03:26:50.705Z,4.20
2023-04-19T03:29:22.128Z,4.20
2023-04-19T03:31:57.662Z,4.70
2023-04-19T03:34:24.140Z,4.50
2023-04-19T03:36:50.824Z,3.90
2023-04-19T03:39:18.538Z,4.70
2023-04-19T03:41:48.353Z,4.57
2023-04-19T03:44:33.472Z,4.00
2023-04-19T03:47:02.374Z,4.50
2023-04-19T03:49:33.471Z,4.43
2023-04-19T03:52:04.494Z,4.57
2023-04-19T03:54:30.922Z,4.23
2023-04-19T03:56:59.457Z,4.13
2023-04-19T03:59:26.436Z,4.13
2023-04-19T04:01:53.676Z,4.00
2023-04-19T04:04:20.501Z,4.40
2023-04-19T04:06:47.256Z,4.53
2023-04-19T04:09:16.233Z,4.07
2023-04-19T04:11:43.443Z,4.13
2023-04-19T04:14:10.404Z,3.93
2023-04-19T04:16:38.394Z,3.53
2023-04-19T04:19:05.452Z,3.97
2023-04-19T04:21:34.845Z,3.47
2023-04-19T04:24:03.811Z,3.70
2023-04-19T04:26:39.480Z,3.70
2023-04-19T04:29:17.518Z,4.70
2023-04-19T04:31:44.948Z,4.10
2023-04-19T04:34:14.274Z,3.70
2023-04-19T04:36:50.544Z,3.73
2023-04-19T04:39:18.807Z,3.87
2023-04-19T04:41:46.469Z,3.50
2023-04-19T04:44:13.209Z,3.77
2023-04-19T04:46:42.056Z,3.80
2023-04-19T04:49:11.190Z,4.00
2023-04-19T04:51:41.688Z,3.87
2023-04-19T04:54:08.896Z,4.00
2023-04-19T04:56:36.819Z,3.83
2023-04-19T04:59:03.360Z,4.57
2023-04-19T05:01:34.595Z,4.30
2023-04-19T05:04:01.746Z,3.70
2023-04-19T05:06:28.308Z,3.70
2023-04-19T05:08:54.772Z,3.50
2023-04-19T05:11:33.704Z,3.50
2023-04-19T05:14:00.796Z,3.53
2023-04-19T05:16:27.934Z,3.40
2023-04-19T05:18:55.361Z,3.60
2023-04-19T05:21:23.107Z,3.93
2023-04-19T05:23:49.739Z,4.00
2023-04-19T05:26:16.262Z,3.60
2023-04-19T05:28:44.645Z,3.90
2023-04-19T05:31:21.025Z,3.43
2023-04-19T05:34:06.192Z,3.50
2023-04-19T05:36:32.920Z,3.57
2023-04-19T05:38:59.344Z,3.57
2023-04-19T05:41:25.934Z,3.37
2023-04-19T05:43:52.349Z,2.93
2023-04-19T05:46:19.866Z,2.53
2023-04-19T05:48:46.540Z,3.17
2023-04-19T05:51:32.013Z,2.70
2023-04-19T05:54:12.487Z,2.77
2023-04-19T05:56:40.325Z,3.60
2023-04-19T05:59:06.945Z,2.67
2023-04-19T06:01:33.570Z,2.70
2023-04-19T06:04:00.282Z,2.30
2023-04-19T06:06:27.543Z,2.50
2023-04-19T06:08:55.024Z,2.80
2023-04-19T06:11:26.875Z,2.70
2023-04-19T06:14:02.094Z,2.67
2023-04-19T06:16:28.856Z,2.80
2023-04-19T06:18:55.336Z,2.63
2023-04-19T06:21:21.819Z,2.40
2023-04-19T06:23:48.216Z,2.20
2023-04-19T06:26:15.037Z,2.57
2023-04-19T06:28:41.449Z,2.83
2023-04-19T06:31:07.906Z,2.30
2023-04-19T06:33:34.442Z,2.30
2023-04-19T06:36:01.474Z,2.80
2023-04-19T06:38:52.892Z,2.53
2023-04-19T06:41:19.494Z,2.37
2023-04-19T06:43:46.230Z,2.60
2023-04-19T06:46:14.422Z,2.53
2023-04-19T06:48:41.142Z,2.27
2023-04-19T06:51:07.794Z,2.67
2023-04-19T06:53:34.665Z,2.40
2023-04-19T06:56:02.491Z,2.47
2023-04-19T06:58:29.107Z,2.50
2023-04-19T07:00:56.118Z,2.27
2023-04-19T07:03:23.107Z,1.90
2023-04-19T07:05:49.941Z,2.33
2023-04-19T07:08:16.454Z,1.73
2023-04-19T07:10:43.766Z,2.10
2023-04-19T07:13:13.544Z,2.23
2023-04-19T07:15:40.206Z,2.20
2023-04-19T07:18:07.200Z,2.23
2023-04-19T07:20:34.004Z,2.23
2023-04-19T07:23:00.784Z,2.00
2023-04-19T07:25:27.469Z,1.97
2023-04-19T07:27:55.622Z,2.20
2023-04-19T07:30:22.617Z,1.90
2023-04-19T07:32:51.624Z,1.67
2023-04-19T07:35:19.439Z,1.70
2023-04-19T07:37:46.179Z,1.70
2023-04-19T07:40:12.979Z,1.37
2023-04-19T07:42:39.447Z,1.70
2023-04-19T07:45:07.098Z,1.40
2023-04-19T07:47:33.778Z,1.77
2023-04-19T07:50:00.302Z,1.60
2023-04-19T07:52:26.877Z,1.27
2023-04-19T07:54:53.536Z,1.43
2023-04-19T07:57:20.001Z,1.40
2023-04-19T07:59:46.456Z,1.40
2023-04-19T08:02:12.957Z,1.37
2023-04-19T08:04:40.219Z,1.27
2023-04-19T08:07:06.909Z,1.37
2023-04-19T08:09:34.330Z,1.40
2023-04-19T08:12:01.313Z,1.33
2023-04-19T08:14:37.816Z,1.60
2023-04-19T08:17:24.348Z,1.10
2023-04-19T08:19:53.803Z,1.50
2023-04-19T08:22:21.586Z,1.30
2023-04-19T08:24:51.290Z,1.80
2023-04-19T08:27:18.321Z,1.33
2023-04-19T08:29:45.866Z,1.50
2023-04-19T08:32:12.835Z,1.93
2023-04-19T08:34:40.478Z,1.40
2023-04-19T08:37:09.509Z,1.47
2023-04-19T08:39:36.445Z,1.13
2023-04-19T08:42:13.322Z,1.67
2023-04-19T08:45:09.412Z,1.60
2023-04-19T08:47:48.537Z,2.17
2023-04-19T08:50:31.938Z,1.50
2023-04-19T08:53:12.175Z,1.43
2023-04-19T08:56:06.716Z,1.43
2023-04-19T08:58:50.370Z,1.93
2023-04-19T09:01:33.720Z,1.57
2023-04-19T09:04:10.255Z,1.57
2023-04-19T09:06:47.392Z,1.43
2023-04-19T09:09:28.731Z,1.57
2023-04-19T09:12:02.694Z,1.50
2023-04-19T09:14:29.644Z,1.20
2023-04-19T09:17:16.250Z,2.07
2023-04-19T09:19:49.918Z,1.83
2023-04-19T09:22:17.269Z,2.30
2023-04-19T09:27:15.498Z,1.97
2023-04-19T09:29:41.954Z,1.67
2023-04-19T09:32:08.675Z,1.50
2023-04-19T09:34:36.220Z,1.47
2023-04-19T09:37:22.782Z,1.77
2023-04-19T09:39:59.325Z,2.00
2023-04-19T09:43:05.441Z,1.77
2023-04-19T09:45:45.369Z,1.83
2023-04-19T09:48:13.102Z,1.47
2023-04-19T09:51:05.713Z,2.00
2023-04-19T09:53:36.817Z,1.57
2023-04-19T09:56:05.412Z,2.13
2023-04-19T09:58:42.647Z,1.87
2023-04-19T10:01:17.191Z,2.10
2023-04-19T10:03:49.450Z,2.20
2023-04-19T10:06:35.657Z,2.20
2023-04-19T10:09:05.050Z,2.47
2023-04-19T10:11:38.739Z,1.87
2023-04-19T10:14:10.533Z,2.13
2023-04-19T10:16:39.138Z,1.80
2023-04-19T10:19:10.024Z,2.00
2023-04-19T10:21:38.127Z,1.90
2023-04-19T10:24:05.555Z,2.10
2023-04-19T10:27:12.130Z,1.90
2023-04-19T10:29:58.292Z,2.17
2023-04-19T10:32:29.530Z,2.00
2023-04-19T10:35:04.728Z,2.20
2023-04-19T10:37:31.987Z,2.20
2023-04-19T10:39:58.379Z,2.30
2023-04-19T10:42:24.851Z,2.10
2023-04-19T10:45:28.835Z,2.53
2023-04-19T10:47:55.843Z,2.20
2023-04-19T10:50:24.207Z,2.07
2023-04-19T10:52:50.773Z,2.30
2023-04-19T10:55:20.150Z,2.20
2023-04-19T10:58:06.408Z,2.63
2023-04-19T11:00:33.592Z,2.40
2023-04-19T11:03:03.379Z,2.33
2023-04-19T11:05:30.130Z,2.07
2023-04-19T11:07:57.701Z,2.00
2023-04-19T11:10:31.295Z,2.10
2023-04-19T11:12:58.167Z,2.30
2023-04-19T11:15:24.889Z,2.30
2023-04-19T11:18:00.945Z,2.43
2023-04-19T11:20:31.374Z,2.50
2023-04-19T11:23:00.939Z,2.90
2023-04-19T11:25:28.039Z,2.30
2023-04-19T11:27:55.661Z,2.30
2023-04-19T11:30:29.655Z,2.50
2023-04-19T11:32:57.472Z,2.77
2023-04-19T11:35:25.956Z,2.50
2023-04-19T11:37:53.973Z,2.40
2023-04-19T11:40:22.414Z,3.17
2023-04-19T11:42:57.663Z,2.60
2023-04-19T11:45:32.221Z,2.37
2023-04-19T11:48:00.573Z,2.30
2023-04-19T11:50:31.267Z,2.40
2023-04-19T11:52:58.893Z,2.67
2023-04-19T11:55:25.463Z,2.40
2023-04-19T11:57:52.225Z,2.70
2023-04-19T12:00:28.487Z,2.20
2023-04-19T12:02:55.601Z,2.60
2023-04-19T12:05:23.680Z,2.47
2023-04-19T12:08:10.925Z,2.40
2023-04-19T12:10:37.624Z,2.47
2023-04-19T12:13:17.405Z,2.50
2023-04-19T12:15:45.262Z,2.50
2023-04-19T12:18:12.604Z,2.43
2023-04-19T12:20:45.605Z,2.60
2023-04-19T12:23:14.023Z,2.30
2023-04-19T12:25:41.308Z,2.43
2023-04-19T12:28:07.896Z,2.43
2023-04-19T12:30:36.417Z,2.70
2023-04-19T12:33:03.406Z,3.03
2023-04-19T12:35:30.724Z,2.70
2023-04-19T12:37:58.951Z,2.50
2023-04-19T12:40:26.953Z,2.23
2023-04-19T12:42:53.955Z,2.50
2023-04-19T12:45:21.214Z,2.47
2023-04-19T12:47:48.715Z,2.20
2023-04-19T12:50:16.177Z,2.07
2023-04-19T12:52:46.014Z,2.07
2023-04-19T12:55:12.933Z,2.40
2023-04-19T12:57:39.580Z,2.33
2023-04-19T13:00:07.336Z,2.17
2023-04-19T13:02:35.016Z,2.10
2023-04-19T13:05:02.475Z,2.30
2023-04-19T13:07:29.019Z,2.03
2023-04-19T13:09:56.659Z,2.20
2023-04-19T13:12:23.993Z,2.20
2023-04-19T13:14:52.381Z,2.13
2023-04-19T13:17:20.138Z,2.23
2023-04-19T13:19:47.552Z,2.40
2023-04-19T13:22:15.028Z,2.40
2023-04-19T13:24:41.718Z,2.00
2023-04-19T13:27:09.068Z,2.00
2023-04-19T13:29:36.154Z,2.70
2023-04-19T13:32:02.680Z,1.90
2023-04-19T13:34:29.487Z,2.50
2023-04-19T13:36:57.504Z,2.43
2023-04-19T13:39:24.121Z,2.20
2023-04-19T13:41:50.874Z,2.10
2023-04-19T13:44:17.687Z,2.40
2023-04-19T13:46:44.502Z,2.30
2023-04-19T13:49:11.178Z,2.37
2023-04-19T13:51:49.034Z,2.60
2023-04-19T13:54:21.214Z,2.03
2023-04-19T13:56:50.569Z,2.07
2023-04-19T13:59:18.173Z,2.03
2023-04-19T14:01:44.604Z,2.43
2023-04-19T14:04:11.322Z,3.07
2023-04-19T14:06:37.975Z,2.50
2023-04-19T14:09:04.456Z,2.27
2023-04-19T14:11:31.101Z,1.90
2023-04-19T14:13:57.993Z,2.90
2023-04-19T14:16:25.269Z,2.07
2023-04-19T14:18:52.782Z,1.90
2023-04-19T14:21:19.558Z,2.30
2023-04-19T14:23:46.102Z,1.90
2023-04-19T14:26:12.620Z,2.20
2023-04-19T14:28:39.360Z,2.20
2023-04-19T14:31:06.276Z,2.17
2023-04-19T14:33:32.798Z,2.63
2023-04-19T14:35:59.224Z,2.80
2023-04-19T14:38:25.920Z,2.47
2023-04-19T14:40:52.297Z,2.00
2023-04-19T14:43:18.726Z,2.40
2023-04-19T14:45:45.172Z,2.20
2023-04-19T14:48:11.819Z,1.90
2023-04-19T14:50:38.237Z,2.00
2023-04-19T14:53:04.685Z,2.00
2023-04-19T14:55:31.102Z,2.10
2023-04-19T14:57:57.790Z,2.13
2023-04-19T15:00:24.267Z,2.37
2023-04-19T15:02:50.913Z,2.40
2023-04-19T15:05:17.803Z,1.83
2023-04-19T15:07:44.440Z,2.53
2023-04-19T15:10:11.118Z,2.20
2023-04-19T15:12:37.554Z,2.03
2023-04-19T15:15:05.599Z,2.30
2023-04-19T15:17:32.050Z,2.10
2023-04-19T15:19:58.649Z,2.50
2023-04-19T15:22:25.323Z,2.57
2023-04-19T15:24:52.049Z,2.37
2023-04-19T15:27:18.463Z,2.17
2023-04-19T15:29:47.661Z,2.20
2023-04-19T15:32:14.215Z,2.00
2023-04-19T15:34:40.804Z,2.00
2023-04-19T15:37:08.046Z,2.00
2023-04-19T15:39:34.680Z,1.93
2023-04-19T15:42:01.989Z,2.20
2023-04-19T15:44:28.980Z,2.10
2023-04-19T15:46:56.094Z,1.83
2023-04-19T15:49:22.692Z,2.20
2023-04-19T15:51:49.089Z,2.30
2023-04-19T15:54:15.818Z,1.90
2023-04-19T15:56:42.238Z,2.00
2023-04-19T15:59:08.745Z,2.03
2023-04-19T16:01:36.077Z,2.10
2023-04-19T16:04:04.170Z,2.10
2023-04-19T16:06:31.816Z,2.00
2023-04-19T16:08:58.365Z,2.00
2023-04-19T16:11:24.801Z,1.67
2023-04-19T16:13:51.312Z,1.80
2023-04-19T16:16:17.856Z,2.00
2023-04-19T16:18:44.342Z,2.03
2023-04-19T16:21:10.754Z,2.37
2023-04-19T16:23:37.452Z,1.80
2023-04-19T16:26:03.949Z,2.20
2023-04-19T16:28:30.402Z,2.20
2023-04-19T16:30:57.114Z,1.90
2023-04-19T16:33:23.868Z,1.80
2023-04-19T16:35:50.276Z,2.60
2023-04-19T16:38:16.858Z,2.17
2023-04-19T16:40:46.073Z,2.27
2023-04-19T16:43:12.810Z,2.17
2023-04-19T16:45:39.815Z,2.00
2023-04-19T16:48:06.476Z,2.67
2023-04-19T16:50:33.129Z,2.50
2023-04-19T16:52:59.579Z,2.00
2023-04-19T16:55:26.012Z,2.40
2023-04-19T16:57:55.561Z,2.20
2023-04-19T17:00:22.979Z,2.33
2023-04-19T17:02:49.795Z,2.30
2023-04-19T17:05:16.410Z,2.40
2023-04-19T17:07:45.715Z,2.60
2023-04-19T17:10:12.481Z,2.40
2023-04-19T17:12:39.087Z,2.57
2023-04-19T17:15:06.163Z,3.03
2023-04-19T17:17:32.784Z,2.50
2023-04-19T17:19:59.249Z,2.10
2023-04-19T17:22:25.825Z,2.10
2023-04-19T17:24:53.993Z,2.60
2023-04-19T17:27:20.803Z,2.33
2023-04-19T17:29:47.266Z,2.23
2023-04-19T17:32:13.885Z,1.90
2023-04-19T17:34:40.347Z,2.13
2023-04-19T17:37:06.815Z,2.40
2023-04-19T17:39:33.242Z,2.03
2023-04-19T17:41:59.980Z,2.20
2023-04-19T17:44:26.883Z,2.00
2023-04-19T17:46:53.738Z,2.20
2023-04-19T17:49:21.648Z,2.23
2023-04-19T17:51:48.601Z,2.03
2023-04-19T17:54:15.982Z,2.80
2023-04-19T17:56:42.437Z,2.20
2023-04-19T17:59:08.996Z,2.50
2023-04-19T18:01:35.611Z,2.17
2023-04-19T18:04:03.454Z,2.23
2023-04-19T18:06:30.002Z,2.20
2023-04-19T18:08:56.475Z,2.10
2023-04-19T18:11:22.942Z,2.73
2023-04-19T18:13:49.641Z,2.30
2023-04-19T18:16:17.248Z,2.30
2023-04-19T18:18:44.377Z,2.10
2023-04-19T18:21:10.824Z,2.00
2023-04-19T18:23:37.404Z,2.00
2023-04-19T18:26:04.012Z,2.20
2023-04-19T18:28:30.940Z,3.17
2023-04-19T18:30:57.424Z,2.67
2023-04-19T18:33:24.007Z,2.20
2023-04-19T18:35:50.468Z,2.30
2023-04-19T18:38:16.947Z,2.33
2023-04-19T18:40:43.390Z,2.70
2023-04-19T18:43:10.302Z,3.57
2023-04-19T18:45:37.219Z,2.33
2023-04-19T18:48:03.934Z,2.30
2023-04-19T18:50:30.967Z,2.00
2023-04-19T18:52:57.820Z,2.50
2023-04-19T18:55:24.708Z,2.30
2023-04-19T18:57:51.128Z,1.87
2023-04-19T19:00:18.710Z,2.83
2023-04-19T19:02:45.996Z,2.10
2023-04-19T19:05:13.676Z,2.17
2023-04-19T19:07:41.598Z,2.30
2023-04-19T19:12:39.693Z,2.30
2023-04-19T19:15:07.127Z,2.50
2023-04-19T19:17:33.721Z,2.00
2023-04-19T19:20:00.801Z,3.10
2023-04-19T19:22:28.841Z,2.23
2023-04-19T19:24:56.199Z,1.97
2023-04-19T19:27:22.790Z,2.40
2023-04-19T19:29:49.494Z,2.20
2023-04-19T19:32:16.168Z,2.60
2023-04-19T19:34:54.056Z,2.30
2023-04-19T19:37:23.015Z,2.23
2023-04-19T19:39:49.905Z,2.53
2023-04-19T19:42:17.625Z,2.37
2023-04-19T19:44:44.601Z,2.57
2023-04-19T19:47:12.214Z,1.97
2023-04-19T19:52:08.534Z,2.77
2023-04-19T19:54:35.237Z,2.80
2023-04-19T19:59:34.849Z,2.33
2023-04-19T20:02:02.406Z,2.80
2023-04-19T20:04:29.710Z,2.43
2023-04-19T20:09:27.668Z,1.93
2023-04-19T20:11:54.404Z,2.37
2023-04-19T20:14:23.468Z,2.37
2023-04-19T20:16:50.237Z,2.27
2023-04-19T20:19:16.993Z,2.67
2023-04-19T20:21:43.796Z,2.77
2023-04-19T20:24:10.571Z,2.37
2023-04-19T20:26:37.034Z,2.20
2023-04-19T20:29:03.478Z,2.50
2023-04-19T20:31:30.078Z,2.40
2023-04-19T20:33:56.804Z,2.13
2023-04-19T20:36:23.398Z,2.30
2023-04-19T20:38:50.828Z,2.43
2023-04-19T20:41:18.395Z,2.90
2023-04-19T20:43:45.068Z,2.40
2023-04-19T20:46:11.715Z,2.10
2023-04-19T20:48:38.210Z,2.90
2023-04-19T20:51:04.665Z,2.80
2023-04-19T20:53:31.471Z,2.43
2023-04-19T20:55:57.953Z,2.80
2023-04-19T20:58:24.470Z,2.77
2023-04-19T21:00:51.068Z,3.37
2023-04-19T21:03:17.733Z,2.77
2023-04-19T21:05:44.614Z,2.83
2023-04-19T21:08:11.229Z,2.90
2023-04-19T21:10:37.774Z,2.73
2023-04-19T21:13:04.351Z,3.03
2023-04-19T21:15:30.986Z,3.60
2023-04-19T21:17:57.597Z,2.97
2023-04-19T21:20:24.097Z,3.23
2023-04-19T21:22:50.671Z,3.00
2023-04-19T21:25:17.144Z,3.30
2023-04-19T21:27:43.600Z,2.60
2023-04-19T21:30:11.125Z,3.20
2023-04-19T21:32:37.900Z,3.00
2023-04-19T21:35:04.785Z,2.97
2023-04-19T21:37:31.254Z,2.70
2023-04-19T21:39:57.759Z,2.70
2023-04-19T21:42:24.434Z,2.83
2023-04-19T21:44:50.899Z,2.70
2023-04-19T21:47:17.524Z,2.90
2023-04-19T21:49:43.976Z,3.00
2023-04-19T21:52:10.932Z,2.43
2023-04-19T21:54:37.338Z,3.17
2023-04-19T21:57:04.014Z,2.77
2023-04-19T21:59:30.954Z,2.30
2023-04-19T22:01:58.834Z,3.13
2023-04-19T22:04:26.210Z,2.80
2023-04-19T22:06:52.614Z,2.87
2023-04-19T22:09:19.544Z,2.20
2023-04-19T22:11:45.956Z,2.27
2023-04-19T22:14:12.798Z,2.40
2023-04-19T22:16:39.391Z,2.27
2023-04-19T22:19:06.103Z,2.50
2023-04-19T22:21:32.754Z,2.63
2023-04-19T22:23:59.446Z,2.17
2023-04-19T22:26:26.675Z,2.30
2023-04-19T22:28:54.439Z,2.20
2023-04-19T22:31:20.867Z,2.00
2023-04-19T22:33:47.341Z,1.90
2023-04-19T22:36:13.776Z,2.00
2023-04-19T22:38:40.703Z,1.80
2023-04-19T22:41:07.095Z,2.17
2023-04-19T22:43:33.564Z,2.40
2023-04-19T22:46:01.008Z,2.23
2023-04-19T22:48:30.098Z,2.30
2023-04-19T22:50:56.727Z,1.60
2023-04-19T22:53:23.833Z,2.33
2023-04-19T22:55:50.495Z,2.17
2023-04-19T22:58:18.422Z,2.13
2023-04-19T23:00:45.078Z,2.20
2023-04-19T23:03:11.624Z,2.00
2023-04-19T23:05:38.052Z,2.10
2023-04-19T23:08:04.913Z,1.80
2023-04-19T23:10:31.686Z,2.10
2023-04-19T23:12:58.232Z,2.07
2023-04-19T23:15:25.017Z,2.00
2023-04-19T23:17:52.627Z,2.00
2023-04-19T23:20:19.218Z,1.87
2023-04-19T23:22:45.773Z,1.90
2023-04-19T23:25:12.299Z,2.57
2023-04-19T23:27:38.982Z,1.90
2023-04-19T23:30:07.639Z,2.30
2023-04-19T23:32:34.451Z,2.10
2023-04-19T23:35:01.182Z,2.20
2023-04-19T23:37:27.870Z,2.30
2023-04-19T23:39:54.308Z,2.33
2023-04-19T23:42:21.126Z,2.10
2023-04-19T23:44:47.579Z,2.20
2023-04-19T23:47:14.273Z,1.90
2023-04-19T23:49:40.683Z,2.13
2023-04-19T23:52:07.313Z,2.40
2023-04-19T23:54:33.787Z,2.53
2023-04-19T23:57:00.688Z,2.40
2023-04-19T23:59:27.258Z,2.10
